»·PEaware :: N7GL KBZN-KGEG

N7GL :: KBZN-KGEG

FLIGHT INFORMATION

Flight Status: Arrived
Operator: Privately registered:
United States
More flights under this callsign
Pilot: Georg L. (13308)
Aircraft: BEECH AIRCRAFT SUPER KING AIR 350
(B350)
More flights by this aircraft type
Origin: KBZN Gallatin
United States
Destination: KGEG Spokane Intl
United States
More flights between these airports :: More routes between these airports
Route: TEERX4 HIA MLP HILIE2
File this flight plan on PilotEdge
Remarks:
Altitude:
(Current/Filed)
20,000ft
Speed:
(Current/Filed)
302kts
Departed: 26-Oct-20 10:16 AM
Arrived: 26-Oct-20 11:30 AM
Distance/Time
Traveled:
285nm/1:13
Distance/Time
To Go:
Arrived

Flight Plot

Page will automatically refresh every two minutes.

Flight plan parsing failed; only flown route is shown


Map Options




Map Legend


Flown Route
Filed Route
Departure Airport
Arrival Airport
Navaid (VOR, NDB)
Fix

Horizontal Profiles

Position Reports

Time Latitude Longitude Heading Altitude Ground
Speed
26-Oct-20 10:02 45.774406 -111.154061 0 4466ft 0kts
26-Oct-20 10:03 45.774406 -111.154061 314 4466ft 0kts
26-Oct-20 10:04 45.774406 -111.154061 314 4466ft 0kts
26-Oct-20 10:05 45.774406 -111.154061 314 4466ft 0kts
26-Oct-20 10:06 45.774406 -111.154061 314 4466ft 0kts
26-Oct-20 10:07 45.774406 -111.154061 314 4466ft 0kts
26-Oct-20 10:08 45.774406 -111.154061 314 4466ft 0kts
26-Oct-20 10:09 45.775009 -111.153727 48 4464ft 7kts
26-Oct-20 10:10 45.776677 -111.154793 316 4460ft 18kts
26-Oct-20 10:11 45.780981 -111.160761 316 4453ft 24kts
26-Oct-20 10:12 45.786035 -111.167832 316 4439ft 19kts
26-Oct-20 10:14 45.787071 -111.167796 48 4437ft 0kts
26-Oct-20 10:15 45.787071 -111.167796 47 4437ft 0kts
26-Oct-20 10:16 45.781678 -111.157623 136 4467ft 117kts
26-Oct-20 10:17 45.751555 -111.123229 178 6247ft 146kts
26-Oct-20 10:18 45.726371 -111.171549 234 7797ft 178kts
26-Oct-20 10:19 45.700088 -111.228058 277 9504ft 180kts
26-Oct-20 10:20 45.707182 -111.290592 283 10986ft 179kts
26-Oct-20 10:21 45.714968 -111.359374 284 12739ft 174kts
26-Oct-20 10:22 45.722755 -111.428162 286 14466ft 177kts
26-Oct-20 10:23 45.730559 -111.497751 289 16293ft 179kts
26-Oct-20 10:24 45.738437 -111.568108 292 18126ft 181kts
26-Oct-20 10:25 45.746335 -111.639192 296 20009ft 181kts
26-Oct-20 10:26 45.761828 -111.712213 301 20361ft 212kts
26-Oct-20 10:27 45.780631 -111.797938 300 20354ft 237kts
26-Oct-20 10:28 45.801153 -111.891279 299 20340ft 253kts
26-Oct-20 10:29 45.822620 -111.989319 299 20319ft 261kts
26-Oct-20 10:30 45.844491 -112.089647 299 20298ft 265kts
26-Oct-20 10:31 45.870401 -112.187180 314 20299ft 252kts
26-Oct-20 10:31 45.903608 -112.255587 315 20295ft 251kts
26-Oct-20 10:33 45.950499 -112.351762 315 20294ft 251kts
26-Oct-20 10:33 45.983817 -112.420535 315 20294ft 252kts
26-Oct-20 10:35 46.031343 -112.518756 315 20297ft 263kts
26-Oct-20 10:35 46.066359 -112.591528 314 20294ft 267kts
26-Oct-20 10:36 46.108801 -112.680020 314 20322ft 269kts
26-Oct-20 10:37 46.151502 -112.769234 314 20344ft 272kts
26-Oct-20 10:38 46.194489 -112.859385 314 20374ft 272kts
26-Oct-20 10:39 46.237357 -112.949560 314 20399ft 273kts
26-Oct-20 10:40 46.280327 -113.040237 314 20404ft 273kts
26-Oct-20 10:41 46.323107 -113.130798 314 20404ft 273kts
26-Oct-20 10:42 46.365814 -113.221505 314 20404ft 273kts
26-Oct-20 10:43 46.408540 -113.312544 314 20403ft 273kts
26-Oct-20 10:44 46.451163 -113.403640 314 20402ft 273kts
26-Oct-20 10:45 46.493612 -113.494700 314 20402ft 273kts
26-Oct-20 10:46 46.536003 -113.585927 314 20401ft 273kts
26-Oct-20 10:47 46.578389 -113.677433 313 20399ft 273kts
26-Oct-20 10:48 46.620584 -113.768827 313 20399ft 273kts
26-Oct-20 10:49 46.662831 -113.860635 313 20398ft 272kts
26-Oct-20 10:50 46.704850 -113.952256 313 20398ft 272kts
26-Oct-20 10:51 46.746844 -114.044125 313 20406ft 271kts
26-Oct-20 10:52 46.788578 -114.135738 313 20427ft 271kts
26-Oct-20 10:53 46.830035 -114.227029 313 20451ft 270kts
26-Oct-20 10:54 46.871475 -114.318582 313 20464ft 269kts
26-Oct-20 10:55 46.912687 -114.409929 313 20468ft 269kts
26-Oct-20 10:56 46.953956 -114.501729 313 20467ft 269kts
26-Oct-20 10:57 46.994999 -114.593293 313 20468ft 269kts
26-Oct-20 10:58 47.035955 -114.685013 312 20466ft 268kts
26-Oct-20 10:59 47.076545 -114.776191 312 20483ft 268kts
26-Oct-20 11:00 47.117315 -114.868052 312 20500ft 269kts
26-Oct-20 11:01 47.158270 -114.960636 312 20499ft 271kts
26-Oct-20 11:02 47.199321 -115.053792 312 20498ft 272kts
26-Oct-20 11:03 47.240367 -115.147258 312 20497ft 272kts
26-Oct-20 11:04 47.281283 -115.240744 312 20496ft 272kts
26-Oct-20 11:05 47.322216 -115.334583 312 20495ft 271kts
26-Oct-20 11:06 47.362842 -115.428042 312 20496ft 271kts
26-Oct-20 11:07 47.403362 -115.521574 312 20494ft 270kts
26-Oct-20 11:08 47.443779 -115.615174 312 20498ft 270kts
26-Oct-20 11:09 47.461976 -115.728367 286 20503ft 294kts
26-Oct-20 11:10 47.469763 -115.849966 286 20336ft 299kts
26-Oct-20 11:11 47.477175 -115.972089 286 20348ft 296kts
26-Oct-20 11:12 47.484401 -116.092814 286 20414ft 294kts
26-Oct-20 11:13 47.491840 -116.216333 285 19624ft 316kts
26-Oct-20 11:14 47.499255 -116.346334 284 18135ft 314kts
26-Oct-20 11:15 47.506696 -116.472925 283 16356ft 309kts
26-Oct-20 11:16 47.513189 -116.595192 282 14332ft 290kts
26-Oct-20 11:17 47.519638 -116.712943 280 12327ft 282kts
26-Oct-20 11:18 47.525629 -116.823687 279 11112ft 266kts
26-Oct-20 11:19 47.559387 -116.910626 314 10028ft 252kts
26-Oct-20 11:20 47.609150 -116.985551 314 8727ft 256kts
26-Oct-20 11:21 47.658698 -117.058103 314 7871ft 240kts
26-Oct-20 11:22 47.707032 -117.129422 314 6542ft 242kts
26-Oct-20 11:23 47.741570 -117.208828 284 5215ft 229kts
26-Oct-20 11:24 47.748525 -117.293075 254 5011ft 187kts
26-Oct-20 11:25 47.728731 -117.359142 237 4875ft 197kts
26-Oct-20 11:26 47.693565 -117.424953 223 4497ft 213kts
26-Oct-20 11:27 47.655293 -117.482056 224 3303ft 163kts
26-Oct-20 11:28 47.629248 -117.521131 225 2398ft 104kts
26-Oct-20 11:29 47.620808 -117.532090 136 2388ft 10kts
26-Oct-20 11:30 47.621400 -117.529499 75 2388ft 8kts
26-Oct-20 11:31 47.620564 -117.527930 0 2388ft 0kts
26-Oct-20 11:32 47.620563 -117.527930 0 2388ft 0kts
26-Oct-20 11:33 47.620563 -117.527930 0 2388ft 0kts
26-Oct-20 11:34 47.620563 -117.527930 0 2388ft 0kts
26-Oct-20 11:35 47.620563 -117.527930 0 2388ft 0kts
26-Oct-20 11:36 47.620563 -117.527930 0 2388ft 0kts
26-Oct-20 11:37 47.620563 -117.527930 0 2388ft 0kts
26-Oct-20 11:38 47.620563 -117.527930 0 2388ft 0kts
26-Oct-20 11:39 47.620563 -117.527930 0 2388ft 0kts
26-Oct-20 11:40 47.620563 -117.527930 0 2388ft 0kts
26-Oct-20 11:41 47.620563 -117.527930 0 2388ft 0kts
26-Oct-20 11:42 47.620563 -117.527930 0 2388ft 0kts
26-Oct-20 11:43 47.620563 -117.527930 0 2388ft 0kts

Navigation Log

Ident Type
Flight plan parsing failed, navigation log unavailable